Time;durP1;ratioP1;P1;durP2;ratioP2;P2;SDS_P1;SDS_P2;PMS_P1;PMS_P2;Temp;Humidity;BMP_temperature;BMP_pressure;BME280_temperature;BME280_humidity;BME280_pressure;Samples;Min_cycle;Max_cycle;Signal;HPM_P1;HPM_P2
2022/06/27 00:02:23;;;;;;;1.50;0.90;;;19.40;97.30;;;;;;4981288;28;20504;-79
2022/06/27 00:04:52;;;;;;;1.50;1.00;;;19.40;97.50;;;;;;4981337;28;20452;-79
2022/06/27 00:07:19;;;;;;;1.50;0.90;;;19.40;97.80;;;;;;4981585;28;20456;-79
2022/06/27 00:09:46;;;;;;;1.50;0.90;;;19.40;98.20;;;;;;4970612;28;20465;-79
2022/06/27 00:12:13;;;;;;;1.47;0.93;;;19.40;98.00;;;;;;4974193;28;20489;-79
2022/06/27 00:14:40;;;;;;;1.50;0.90;;;19.40;97.60;;;;;;4977392;28;20505;-79
2022/06/27 00:17:07;;;;;;;1.47;1.00;;;19.40;97.50;;;;;;4981565;28;20484;-79
2022/06/27 00:19:34;;;;;;;1.50;0.90;;;19.40;98.20;;;;;;4995065;28;20891;-79
2022/06/27 00:22:04;;;;;;;1.50;0.90;;;19.40;98.20;;;;;;4984217;28;20481;-79
2022/06/27 00:24:31;;;;;;;1.47;0.90;;;19.40;98.20;;;;;;4973191;28;20458;-79
2022/06/27 00:26:58;;;;;;;1.50;0.90;;;19.40;97.70;;;;;;4972539;28;20495;-80
2022/06/27 00:29:24;;;;;;;1.47;0.90;;;19.40;98.20;;;;;;4986766;28;20468;-79
2022/06/27 00:31:51;;;;;;;1.50;0.90;;;19.40;98.20;;;;;;4971416;28;20544;-79
2022/06/27 00:34:18;;;;;;;1.50;0.90;;;19.30;98.20;;;;;;4969701;28;20496;-80
2022/06/27 00:36:45;;;;;;;1.50;1.00;;;19.30;98.00;;;;;;4982320;28;21176;-80
2022/06/27 00:39:13;;;;;;;1.50;0.90;;;19.30;98.10;;;;;;5005882;28;20457;-80
2022/06/27 00:41:40;;;;;;;1.50;0.90;;;19.30;98.20;;;;;;4990854;28;20470;-79
2022/06/27 00:44:09;;;;;;;1.50;0.90;;;19.30;98.20;;;;;;4998225;28;20491;-79
2022/06/27 00:46:36;;;;;;;1.50;0.90;;;19.30;98.00;;;;;;4980995;28;20489;-80
2022/06/27 00:49:03;;;;;;;1.43;0.90;;;19.30;98.20;;;;;;5007325;28;20465;-80
2022/06/27 00:51:30;;;;;;;1.50;0.90;;;19.30;98.20;;;;;;4981415;28;20459;-79
2022/06/27 00:53:57;;;;;;;1.50;0.90;;;19.30;98.20;;;;;;4998512;28;20489;-80
2022/06/27 00:56:25;;;;;;;1.47;1.00;;;19.30;98.20;;;;;;4981603;28;20910;-80
2022/06/27 00:58:52;;;;;;;1.50;0.90;;;19.30;98.20;;;;;;4979043;28;20465;-80
2022/06/27 01:01:19;;;;;;;1.47;0.93;;;19.20;98.20;;;;;;4971119;28;20484;-80
2022/06/27 01:03:45;;;;;;;1.50;0.90;;;19.20;98.20;;;;;;5003170;28;20525;-80
2022/06/27 01:06:12;;;;;;;1.50;0.90;;;19.20;98.20;;;;;;4977299;28;20455;-80
2022/06/27 01:08:40;;;;;;;1.50;0.90;;;19.10;98.20;;;;;;4972252;28;20477;-80
2022/06/27 01:11:07;;;;;;;1.50;1.00;;;19.20;98.20;;;;;;4970808;28;20485;-81
2022/06/27 01:13:35;;;;;;;1.50;1.00;;;19.20;98.20;;;;;;4991128;28;20998;-80
2022/06/27 01:16:02;;;;;;;1.43;0.90;;;19.10;98.20;;;;;;4973109;28;20585;-80
2022/06/27 01:18:29;;;;;;;1.50;0.90;;;19.10;98.20;;;;;;4992504;28;20464;-80
2022/06/27 01:20:56;;;;;;;1.40;0.90;;;19.10;98.20;;;;;;4978110;28;20525;-80
2022/06/27 01:23:25;;;;;;;1.50;0.90;;;19.00;98.20;;;;;;4998390;28;20485;-80
2022/06/27 01:25:51;;;;;;;1.50;1.00;;;19.00;98.20;;;;;;4993143;28;20493;-80
2022/06/27 01:28:18;;;;;;;1.50;0.90;;;19.00;98.20;;;;;;4974425;28;20467;-81
2022/06/27 01:30:45;;;;;;;1.50;0.90;;;19.00;98.20;;;;;;4973982;28;20919;-81
2022/06/27 01:33:12;;;;;;;1.50;0.90;;;19.00;98.20;;;;;;4979681;28;20535;-81
2022/06/27 01:35:39;;;;;;;1.47;0.90;;;19.00;98.20;;;;;;4992984;28;20584;-80
2022/06/27 01:38:07;;;;;;;1.50;0.90;;;19.00;98.20;;;;;;4991079;28;20566;-81
2022/06/27 01:40:35;;;;;;;1.50;0.90;;;19.00;98.20;;;;;;4993496;28;20545;-80
2022/06/27 01:43:02;;;;;;;1.50;0.97;;;19.00;98.20;;;;;;4976600;28;20999;-81
2022/06/27 01:45:30;;;;;;;1.50;0.90;;;19.00;98.20;;;;;;4980544;28;20467;-80
2022/06/27 01:47:56;;;;;;;1.50;0.90;;;19.00;98.20;;;;;;4984427;28;20520;-80
2022/06/27 01:50:25;;;;;;;1.50;0.90;;;19.00;98.20;;;;;;4972120;28;20737;-80
2022/06/27 01:52:53;;;;;;;1.47;0.90;;;19.00;98.20;;;;;;4976714;28;20474;-81
2022/06/27 01:55:20;;;;;;;1.47;0.90;;;19.00;98.20;;;;;;4987603;28;20544;-80
2022/06/27 01:57:49;;;;;;;1.43;0.90;;;19.00;98.20;;;;;;4973154;28;20481;-81
2022/06/27 02:00:17;;;;;;;1.50;0.90;;;19.00;98.20;;;;;;4969439;28;20470;-81
2022/06/27 02:02:44;;;;;;;1.50;1.00;;;19.00;98.20;;;;;;4982171;28;21116;-81
2022/06/27 02:05:11;;;;;;;1.50;0.90;;;19.10;98.20;;;;;;4974714;28;20469;-80
2022/06/27 02:07:39;;;;;;;1.47;0.90;;;19.10;98.20;;;;;;4972033;28;20463;-81
2022/06/27 02:10:08;;;;;;;1.50;1.00;;;19.10;98.20;;;;;;4977117;28;20469;-81
2022/06/27 02:12:35;;;;;;;1.50;0.90;;;19.10;98.20;;;;;;4978899;28;20495;-81
2022/06/27 02:15:04;;;;;;;1.50;0.90;;;19.10;98.20;;;;;;4978838;28;20545;-81
2022/06/27 02:17:31;;;;;;;1.50;1.00;;;19.10;98.20;;;;;;4972405;28;21037;-80
2022/06/27 02:19:58;;;;;;;1.50;0.90;;;19.00;98.20;;;;;;4996702;28;20464;-80
2022/06/27 02:22:25;;;;;;;1.47;0.90;;;19.00;98.20;;;;;;4984332;28;20584;-80
2022/06/27 02:24:52;;;;;;;1.50;0.90;;;19.00;98.20;;;;;;4997315;28;20464;-81
2022/06/27 02:27:20;;;;;;;1.50;0.90;;;19.00;98.20;;;;;;4977474;28;20499;-80
2022/06/27 02:29:47;;;;;;;1.50;0.90;;;19.00;98.20;;;;;;4969870;28;20457;-80
2022/06/27 02:32:15;;;;;;;1.50;0.90;;;19.00;98.20;;;;;;4970678;28;20986;-81
2022/06/27 02:34:43;;;;;;;1.43;0.90;;;19.00;98.20;;;;;;4985542;28;20468;-80
2022/06/27 02:37:12;;;;;;;1.50;0.90;;;19.00;98.20;;;;;;4981620;28;20511;-80
2022/06/27 02:39:41;;;;;;;1.50;0.90;;;19.00;98.20;;;;;;4982236;28;20466;-80
2022/06/27 02:42:09;;;;;;;1.50;0.90;;;19.00;98.20;;;;;;4974495;28;20516;-80
2022/06/27 02:44:38;;;;;;;1.43;0.90;;;19.00;98.20;;;;;;4981352;28;20461;-81
2022/06/27 02:47:06;;;;;;;1.43;0.90;;;19.00;98.20;;;;;;4980873;28;20461;-80
2022/06/27 02:49:34;;;;;;;1.50;1.00;;;18.90;98.20;;;;;;4996077;28;20468;-81
2022/06/27 02:52:07;;;;;;;1.50;0.90;;;18.90;98.20;;;;;;4981323;28;20499;-80
2022/06/27 02:54:41;;;;;;;1.50;0.90;;;18.90;98.20;;;;;;4976370;28;20594;-82
2022/06/27 02:57:16;;;;;;;1.47;0.90;;;18.90;98.20;;;;;;4969969;28;21109;-81
2022/06/27 02:59:45;;;;;;;1.47;0.90;;;18.90;98.20;;;;;;4974624;28;20519;-81
2022/06/27 03:02:14;;;;;;;1.47;0.90;;;18.90;98.20;;;;;;4984849;28;20491;-81
2022/06/27 03:04:46;;;;;;;1.50;0.90;;;18.80;98.20;;;;;;5002234;28;20476;-81
2022/06/27 03:07:13;;;;;;;1.47;0.90;;;18.80;98.20;;;;;;4978493;28;20466;-81
2022/06/27 03:09:40;;;;;;;1.50;0.90;;;18.90;98.20;;;;;;4982033;28;20470;-80
2022/06/27 03:12:08;;;;;;;1.50;0.90;;;18.90;98.20;;;;;;4965324;28;20535;-80
2022/06/27 03:14:34;;;;;;;1.50;0.90;;;18.90;98.20;;;;;;4978632;28;20504;-81
2022/06/27 03:17:01;;;;;;;1.50;1.00;;;18.90;98.20;;;;;;4975391;28;20492;-80
2022/06/27 03:19:28;;;;;;;1.50;0.90;;;18.90;98.20;;;;;;4981481;28;20469;-80
2022/06/27 03:21:59;;;;;;;1.50;0.90;;;18.90;98.20;;;;;;4966828;28;20489;-80
2022/06/27 03:24:28;;;;;;;1.50;0.90;;;18.90;98.20;;;;;;4982933;28;20490;-81
2022/06/27 03:26:55;;;;;;;1.60;1.30;;;18.90;98.20;;;;;;4979084;28;20551;-80
2022/06/27 03:29:22;;;;;;;1.50;0.90;;;18.90;98.20;;;;;;4990555;28;20457;-80
2022/06/27 03:31:49;;;;;;;1.50;0.90;;;18.90;98.20;;;;;;4979584;28;20541;-81
2022/06/27 03:34:18;;;;;;;1.50;1.00;;;18.90;98.20;;;;;;4989541;28;21004;-81
2022/06/27 03:36:45;;;;;;;1.60;1.10;;;18.90;98.20;;;;;;4980824;28;20478;-81
2022/06/27 03:39:13;;;;;;;1.47;0.90;;;19.00;98.20;;;;;;4980638;28;20887;-81
2022/06/27 03:41:40;;;;;;;1.47;1.00;;;19.00;98.20;;;;;;4980211;28;20875;-81
2022/06/27 03:44:09;;;;;;;1.50;0.90;;;19.00;98.20;;;;;;4992986;28;20600;-80
2022/06/27 03:46:36;;;;;;;1.50;0.90;;;19.00;98.20;;;;;;4972645;28;20519;-80
2022/06/27 03:51:49;;;;;;;1.50;0.90;;;19.00;98.20;;;;;;4982317;28;20453;-81
2022/06/27 03:54:17;;;;;;;1.47;1.00;;;19.00;98.20;;;;;;4976884;28;20549;-80
2022/06/27 03:56:44;;;;;;;1.50;1.00;;;19.00;98.20;;;;;;4971096;28;20554;-81
2022/06/27 03:59:11;;;;;;;1.50;0.90;;;19.00;98.20;;;;;;4965576;28;20994;-79
2022/06/27 04:01:38;;;;;;;1.47;0.90;;;19.10;98.20;;;;;;4973104;28;20547;-81
2022/06/27 04:04:09;;;;;;;1.43;0.90;;;19.10;98.20;;;;;;4978538;28;20497;-79
2022/06/27 04:06:43;;;;;;;1.47;0.97;;;19.10;98.20;;;;;;4967283;28;20591;-80
2022/06/27 04:09:10;;;;;;;1.50;0.90;;;19.10;98.20;;;;;;4988381;28;20463;-80
2022/06/27 04:11:39;;;;;;;1.47;0.90;;;19.10;98.20;;;;;;4986364;28;20570;-82
2022/06/27 04:14:05;;;;;;;1.47;0.97;;;19.00;98.20;;;;;;4980408;28;20494;-81
2022/06/27 04:16:32;;;;;;;1.50;1.00;;;19.00;98.20;;;;;;4975636;28;20515;-81
2022/06/27 04:18:59;;;;;;;1.47;0.90;;;19.00;98.20;;;;;;4996330;28;20465;-81
2022/06/27 04:21:26;;;;;;;1.50;0.90;;;19.00;98.20;;;;;;4989339;28;20839;-81
2022/06/27 04:23:53;;;;;;;1.50;0.90;;;18.90;98.20;;;;;;4998117;28;21044;-80
2022/06/27 04:26:20;;;;;;;1.50;0.97;;;18.90;98.20;;;;;;4977391;28;20553;-80
2022/06/27 04:28:52;;;;;;;1.50;0.90;;;18.90;98.20;;;;;;4987028;28;20470;-81
2022/06/27 04:31:19;;;;;;;1.50;0.90;;;18.90;98.20;;;;;;4979618;28;20557;-82
2022/06/27 04:33:46;;;;;;;1.47;0.90;;;18.90;98.20;;;;;;4986762;23;20503;-81
2022/06/27 04:36:17;;;;;;;1.50;0.90;;;18.90;98.20;;;;;;4975407;28;20481;-81
2022/06/27 04:38:44;;;;;;;1.47;1.00;;;18.80;98.20;;;;;;4969097;28;20473;-81
2022/06/27 04:41:11;;;;;;;1.50;1.00;;;18.80;98.20;;;;;;4963564;28;20576;-81
2022/06/27 04:43:38;;;;;;;1.50;0.90;;;18.80;98.20;;;;;;4960614;28;20487;-81
2022/06/27 04:46:10;;;;;;;1.47;0.90;;;18.90;98.20;;;;;;4947996;28;20494;-81
2022/06/27 04:48:37;;;;;;;1.47;0.90;;;18.90;98.20;;;;;;4956236;29;20462;-80
2022/06/27 04:51:08;;;;;;;1.50;1.20;;;18.80;98.20;;;;;;4957404;29;20558;-81
2022/06/27 04:53:35;;;;;;;1.47;0.90;;;18.80;98.20;;;;;;4944204;29;20484;-80
2022/06/27 04:56:02;;;;;;;1.50;0.90;;;18.80;98.20;;;;;;4941148;29;20570;-81
2022/06/27 04:58:29;;;;;;;1.50;0.90;;;18.80;98.20;;;;;;4946345;29;20809;-82
2022/06/27 05:00:57;;;;;;;1.50;1.00;;;18.90;98.20;;;;;;4949987;29;21153;-79
2022/06/27 05:03:25;;;;;;;1.47;0.90;;;18.90;98.20;;;;;;4941608;28;20519;-81
2022/06/27 05:05:52;;;;;;;1.50;0.97;;;18.90;98.20;;;;;;4931195;28;20460;-82
2022/06/27 05:08:20;;;;;;;1.47;0.90;;;19.00;98.20;;;;;;4954291;28;21310;-82
2022/06/27 05:10:47;;;;;;;1.50;0.90;;;19.10;98.20;;;;;;4946711;29;20954;-80
2022/06/27 05:13:14;;;;;;;1.70;1.60;;;19.10;98.20;;;;;;4942901;29;20514;-81
2022/06/27 05:15:42;;;;;;;1.50;0.90;;;19.20;98.20;;;;;;4942315;28;20483;-81
2022/06/27 05:18:08;;;;;;;1.50;0.90;;;19.20;98.20;;;;;;4930778;29;20483;-81
2022/06/27 05:20:37;;;;;;;1.83;1.73;;;19.30;98.20;;;;;;4937668;29;21148;-81
2022/06/27 05:23:06;;;;;;;1.47;0.90;;;19.30;98.20;;;;;;4943376;28;20491;-82
2022/06/27 05:25:33;;;;;;;1.50;0.90;;;19.30;98.20;;;;;;4948306;29;20467;-81
2022/06/27 05:28:02;;;;;;;1.50;0.90;;;19.30;98.20;;;;;;4959110;28;20537;-80
2022/06/27 05:30:30;;;;;;;1.70;1.20;;;19.30;98.20;;;;;;4943058;29;20467;-80
2022/06/27 05:33:00;;;;;;;1.50;1.00;;;19.30;98.20;;;;;;4942616;28;20486;-82
2022/06/27 05:35:27;;;;;;;1.50;0.90;;;19.30;98.20;;;;;;4938726;29;20472;-80
2022/06/27 05:37:56;;;;;;;1.50;0.90;;;19.40;98.20;;;;;;4933800;29;20904;-80
2022/06/27 05:40:23;;;;;;;1.50;0.90;;;19.40;98.20;;;;;;4935800;29;20495;-80
2022/06/27 05:42:50;;;;;;;1.50;0.90;;;19.40;98.20;;;;;;4941403;28;20562;-79
2022/06/27 05:45:17;;;;;;;1.50;0.90;;;19.40;98.20;;;;;;4938551;29;20493;-80
2022/06/27 05:47:44;;;;;;;1.50;0.90;;;19.40;98.20;;;;;;4938645;29;20467;-80
2022/06/27 05:50:12;;;;;;;1.50;0.90;;;19.50;98.20;;;;;;4949886;28;20475;-80
2022/06/27 05:52:43;;;;;;;1.50;0.90;;;19.50;98.20;;;;;;4949380;28;20561;-81
2022/06/27 05:55:12;;;;;;;1.50;1.00;;;19.40;98.20;;;;;;4944209;29;20975;-79
2022/06/27 05:57:39;;;;;;;1.50;1.00;;;19.30;98.20;;;;;;4950564;28;20864;-80
2022/06/27 06:00:08;;;;;;;1.50;0.90;;;19.40;98.20;;;;;;4936151;29;20842;-80
2022/06/27 06:02:36;;;;;;;1.50;0.90;;;19.40;98.20;;;;;;4941092;28;20491;-79
2022/06/27 06:05:04;;;;;;;1.50;0.90;;;19.40;98.20;;;;;;4935100;28;20478;-80
2022/06/27 06:07:31;;;;;;;1.50;0.90;;;19.40;98.20;;;;;;4938604;28;20498;-78
2022/06/27 06:10:00;;;;;;;1.50;0.90;;;19.40;98.20;;;;;;4945763;28;20472;-78
2022/06/27 06:12:29;;;;;;;1.50;0.97;;;19.40;98.20;;;;;;4936332;29;20512;-79
2022/06/27 06:15:02;;;;;;;1.50;0.90;;;19.40;98.20;;;;;;4943674;29;20464;-78
2022/06/27 06:17:29;;;;;;;1.47;0.90;;;19.50;98.20;;;;;;4933504;29;20941;-79
2022/06/27 06:19:56;;;;;;;1.50;1.00;;;19.60;98.20;;;;;;4930457;29;20934;-79
2022/06/27 06:22:24;;;;;;;1.50;0.90;;;19.60;98.20;;;;;;4936667;29;20475;-79
2022/06/27 06:24:51;;;;;;;1.50;0.90;;;19.70;98.20;;;;;;4930123;29;20468;-79
2022/06/27 06:27:18;;;;;;;1.50;0.97;;;19.60;98.20;;;;;;4941520;28;20570;-80
2022/06/27 06:29:47;;;;;;;1.50;0.90;;;19.60;98.20;;;;;;4936719;29;20456;-79
2022/06/27 06:32:14;;;;;;;1.50;0.97;;;19.70;98.20;;;;;;4933750;28;20477;-80
2022/06/27 06:34:41;;;;;;;1.50;0.90;;;19.70;98.20;;;;;;4935042;29;20546;-79
2022/06/27 06:37:09;;;;;;;1.50;0.90;;;19.80;98.20;;;;;;4930140;29;20598;-80
2022/06/27 06:39:36;;;;;;;1.60;1.33;;;19.90;98.20;;;;;;4934880;29;20459;-80
2022/06/27 06:42:04;;;;;;;1.50;0.90;;;20.00;98.20;;;;;;4929517;28;20482;-79
2022/06/27 06:44:31;;;;;;;1.50;0.90;;;20.10;98.20;;;;;;4948223;29;21003;-80
2022/06/27 06:46:59;;;;;;;1.50;1.00;;;20.10;98.20;;;;;;4937132;29;20471;-80
2022/06/27 06:49:26;;;;;;;1.50;0.90;;;20.20;98.20;;;;;;4938153;29;20463;-80
2022/06/27 06:51:53;;;;;;;1.50;0.90;;;20.20;98.20;;;;;;4932649;28;20549;-80
2022/06/27 06:54:20;;;;;;;1.50;0.90;;;20.20;98.20;;;;;;4942687;28;20497;-80
2022/06/27 06:56:49;;;;;;;1.50;0.90;;;20.20;98.20;;;;;;4936295;29;20478;-80
2022/06/27 06:59:16;;;;;;;1.50;0.90;;;20.30;98.20;;;;;;4935183;29;20559;-80
2022/06/27 07:01:46;;;;;;;1.50;0.90;;;20.30;98.20;;;;;;4936583;28;21068;-80
2022/06/27 07:04:15;;;;;;;1.50;0.90;;;20.40;98.20;;;;;;4942176;28;20582;-80
2022/06/27 07:06:42;;;;;;;1.50;0.90;;;20.50;98.20;;;;;;4941454;29;20538;-79
2022/06/27 07:09:09;;;;;;;1.73;1.23;;;20.60;98.20;;;;;;4936657;29;20474;-79
2022/06/27 07:11:38;;;;;;;1.50;0.90;;;20.70;98.20;;;;;;4931749;28;21186;-80
2022/06/27 07:14:06;;;;;;;1.50;0.90;;;20.80;98.20;;;;;;4944009;28;20483;-79
2022/06/27 07:16:33;;;;;;;1.50;0.90;;;20.80;98.20;;;;;;4942119;29;20498;-80
2022/06/27 07:19:01;;;;;;;1.50;0.90;;;20.90;98.20;;;;;;4939184;29;20463;-79
2022/06/27 07:21:30;;;;;;;1.50;0.90;;;21.00;98.20;;;;;;4945854;29;20924;-80
2022/06/27 07:23:57;;;;;;;1.50;0.90;;;21.00;98.20;;;;;;4936773;29;20611;-80
2022/06/27 07:26:27;;;;;;;1.50;1.00;;;21.10;98.20;;;;;;4931943;29;20508;-80
2022/06/27 07:28:55;;;;;;;1.50;0.90;;;21.00;98.20;;;;;;4950417;28;20716;-80
2022/06/27 07:31:22;;;;;;;1.50;0.90;;;21.00;98.20;;;;;;4936131;29;20472;-79
2022/06/27 07:33:54;;;;;;;1.50;0.90;;;21.00;98.20;;;;;;4938697;29;20594;-79
2022/06/27 07:36:25;;;;;;;1.50;0.90;;;21.00;98.20;;;;;;4933075;28;20525;-79
2022/06/27 07:38:58;;;;;;;1.50;0.90;;;21.00;98.20;;;;;;4965177;28;20466;-80
2022/06/27 07:41:26;;;;;;;1.50;0.90;;;20.90;98.20;;;;;;4950132;28;20535;-76
2022/06/27 07:43:54;;;;;;;1.50;0.90;;;20.80;98.20;;;;;;4940096;29;21002;-77
2022/06/27 07:46:22;;;;;;;1.50;0.90;;;20.70;98.20;;;;;;4945565;28;20489;-77
2022/06/27 07:48:50;;;;;;;1.50;0.93;;;20.70;98.20;;;;;;4965735;28;20470;-77
2022/06/27 07:51:19;;;;;;;1.50;0.90;;;20.80;98.20;;;;;;4943911;28;20479;-78
2022/06/27 07:53:47;;;;;;;1.50;0.90;;;20.80;98.20;;;;;;4952993;28;20490;-77
2022/06/27 07:56:16;;;;;;;1.70;1.10;;;20.90;98.20;;;;;;4951914;28;20490;-78
2022/06/27 07:58:43;;;;;;;1.50;1.10;;;21.00;98.20;;;;;;4934642;29;20471;-78
2022/06/27 08:01:14;;;;;;;1.50;0.90;;;21.20;98.20;;;;;;4936844;28;20513;-78
2022/06/27 08:03:44;;;;;;;1.50;0.90;;;21.20;98.20;;;;;;4949429;28;20491;-79
2022/06/27 08:06:13;;;;;;;1.50;0.90;;;21.30;98.20;;;;;;4931237;28;20479;-78
2022/06/27 08:08:42;;;;;;;1.50;0.90;;;21.40;98.20;;;;;;4946622;28;20475;-78
2022/06/27 08:11:11;;;;;;;1.50;0.90;;;21.30;98.20;;;;;;4954474;29;20467;-79
2022/06/27 08:13:40;;;;;;;1.50;0.90;;;21.30;98.20;;;;;;4941333;29;20914;-79
2022/06/27 08:16:08;;;;;;;1.50;0.90;;;21.30;98.20;;;;;;4932387;28;20484;-79
2022/06/27 08:18:38;;;;;;;1.43;0.90;;;21.30;98.20;;;;;;4956042;28;20514;-79
2022/06/27 08:21:06;;;;;;;1.50;0.90;;;21.30;98.20;;;;;;4940387;28;20471;-79
2022/06/27 08:23:34;;;;;;;1.50;0.90;;;21.20;98.20;;;;;;4939510;29;20836;-78
2022/06/27 08:26:01;;;;;;;1.50;0.90;;;21.20;98.20;;;;;;4950448;28;21074;-79
2022/06/27 08:28:28;;;;;;;1.50;1.00;;;21.10;98.20;;;;;;4953015;28;20463;-79
2022/06/27 08:31:00;;;;;;;1.50;0.90;;;21.10;98.20;;;;;;4938287;29;20508;-79
2022/06/27 08:33:27;;;;;;;1.50;1.00;;;21.10;98.20;;;;;;4942388;28;20492;-79
2022/06/27 08:35:56;;;;;;;1.50;0.90;;;21.10;98.20;;;;;;4939315;29;20464;-79
2022/06/27 08:38:55;;;;;;;1.50;0.90;;;21.10;98.20;;;;;;4934800;29;20483;-79
2022/06/27 08:41:24;;;;;;;1.50;0.90;;;21.10;98.20;;;;;;4937975;29;20912;-80
2022/06/27 08:43:55;;;;;;;1.50;0.90;;;21.10;98.20;;;;;;4945202;29;20919;-79
2022/06/27 08:46:23;;;;;;;1.50;0.90;;;21.10;98.20;;;;;;4940559;29;20534;-79
2022/06/27 08:48:51;;;;;;;1.50;0.90;;;21.10;98.20;;;;;;4937358;28;20467;-80
2022/06/27 08:51:19;;;;;;;1.50;0.90;;;21.10;98.20;;;;;;4943720;28;20662;-79
2022/06/27 08:53:46;;;;;;;1.50;0.90;;;21.10;98.20;;;;;;4968035;28;20487;-79
2022/06/27 08:56:13;;;;;;;1.50;0.90;;;21.10;98.20;;;;;;4949580;28;20486;-78
2022/06/27 08:58:42;;;;;;;1.47;0.90;;;21.10;98.20;;;;;;4938334;28;20492;-79
2022/06/27 09:01:11;;;;;;;1.47;0.90;;;21.10;98.20;;;;;;4932336;28;20478;-79
2022/06/27 09:03:39;;;;;;;1.50;0.90;;;21.10;98.20;;;;;;4951206;28;20530;-80
2022/06/27 09:06:07;;;;;;;1.50;0.90;;;21.10;98.20;;;;;;4943340;29;20530;-79
2022/06/27 09:08:36;;;;;;;1.50;0.90;;;21.10;98.20;;;;;;4946514;29;20482;-78
2022/06/27 09:11:04;;;;;;;1.50;0.90;;;21.10;98.20;;;;;;4938847;29;20472;-78
2022/06/27 09:13:32;;;;;;;1.47;0.90;;;21.10;98.20;;;;;;4951262;28;20491;-79
2022/06/27 09:16:00;;;;;;;1.47;0.90;;;21.10;98.20;;;;;;4938706;28;20892;-78
2022/06/27 09:18:29;;;;;;;1.50;0.90;;;21.20;98.20;;;;;;4954396;28;20518;-78
2022/06/27 09:21:11;;;;;;;1.50;0.90;;;21.20;98.20;;;;;;4933852;29;20798;-79
2022/06/27 09:26:19;;;;;;;1.50;0.90;;;21.40;98.20;;;;;;4946527;28;20561;-79
2022/06/27 09:28:52;;;;;;;1.50;0.90;;;21.40;98.20;;;;;;4961427;28;20798;-78
2022/06/27 09:31:37;;;;;;;1.43;0.90;;;21.50;98.20;;;;;;4940729;28;20491;-78
2022/06/27 09:34:10;;;;;;;1.50;0.90;;;21.50;98.20;;;;;;4964301;28;21157;-78
2022/06/27 09:36:40;;;;;;;1.50;0.90;;;21.60;98.20;;;;;;4969114;28;20833;-79
2022/06/27 09:39:10;;;;;;;1.50;0.90;;;21.60;98.20;;;;;;4955858;28;20462;-77
2022/06/27 09:41:40;;;;;;;1.50;0.90;;;21.60;98.20;;;;;;4955759;28;20546;-79
2022/06/27 09:44:11;;;;;;;1.50;0.90;;;21.70;98.20;;;;;;4958829;28;20491;-78
2022/06/27 09:46:42;;;;;;;1.60;1.10;;;21.80;98.20;;;;;;4951332;28;20501;-78
2022/06/27 09:49:14;;;;;;;1.50;0.90;;;21.90;98.20;;;;;;4963644;28;20470;-78
2022/06/27 09:51:43;;;;;;;1.50;0.90;;;22.10;98.20;;;;;;4957802;28;20459;-78
2022/06/27 09:54:11;;;;;;;1.50;0.90;;;22.20;98.20;;;;;;4955599;28;20593;-78
2022/06/27 09:56:41;;;;;;;1.60;1.23;;;22.30;97.40;;;;;;4960148;28;20477;-78
2022/06/27 09:59:11;;;;;;;1.50;0.90;;;22.50;97.30;;;;;;4955809;28;20498;-76
2022/06/27 10:01:40;;;;;;;1.50;0.90;;;22.50;96.70;;;;;;4963291;28;20517;-77
2022/06/27 10:04:08;;;;;;;1.50;0.90;;;22.60;96.60;;;;;;4965960;28;20487;-77
2022/06/27 10:06:35;;;;;;;1.50;0.90;;;22.80;97.60;;;;;;4943692;28;20491;-76
2022/06/27 10:09:05;;;;;;;1.50;0.90;;;23.00;97.10;;;;;;4946820;28;20489;-76
2022/06/27 10:11:32;;;;;;;1.50;0.90;;;23.30;96.70;;;;;;4950773;28;20459;-78
2022/06/27 10:14:20;;;;;;;1.50;0.90;;;23.60;94.50;;;;;;4968060;28;20565;-78
2022/06/27 10:16:56;;;;;;;1.50;0.90;;;23.90;95.50;;;;;;4955426;28;20459;-78
2022/06/27 10:19:25;;;;;;;1.50;0.90;;;24.20;93.90;;;;;;4951992;28;20469;-78
2022/06/27 10:21:52;;;;;;;1.50;0.90;;;24.30;92.90;;;;;;4960239;28;20508;-79
2022/06/27 10:24:34;;;;;;;1.50;0.90;;;24.40;92.20;;;;;;4957017;28;20494;-77
2022/06/27 10:27:04;;;;;;;1.50;0.90;;;24.30;92.10;;;;;;4966759;28;20996;-78
2022/06/27 10:29:48;;;;;;;1.50;0.90;;;24.20;91.60;;;;;;4963558;28;20459;-78
2022/06/27 10:32:41;;;;;;;1.50;0.80;;;24.20;92.70;;;;;;4949927;28;20473;-78
2022/06/27 10:35:10;;;;;;;1.50;0.90;;;24.10;92.90;;;;;;4949721;28;20491;-77
2022/06/27 10:37:39;;;;;;;1.50;0.90;;;24.00;92.60;;;;;;4953243;28;20613;-78
2022/06/27 10:40:44;;;;;;;1.47;0.87;;;24.00;93.10;;;;;;4950955;28;20478;-78
2022/06/27 10:43:37;;;;;;;1.47;0.90;;;24.00;92.90;;;;;;4955398;28;20470;-78
2022/06/27 10:46:53;;;;;;;1.50;0.90;;;24.00;93.20;;;;;;4950078;28;20493;-77
2022/06/27 10:49:25;;;;;;;1.50;0.90;;;24.10;92.20;;;;;;4967157;28;20465;-78
2022/06/27 10:51:53;;;;;;;1.50;0.90;;;24.10;92.00;;;;;;4966477;28;20488;-77
2022/06/27 10:54:20;;;;;;;1.50;0.80;;;24.00;91.80;;;;;;4964989;28;21025;-79
2022/06/27 10:56:50;;;;;;;1.50;0.80;;;23.90;92.00;;;;;;4966599;28;20480;-79
2022/06/27 10:59:59;;;;;;;1.47;0.80;;;23.90;93.10;;;;;;4967624;28;20987;-75
2022/06/27 11:02:31;;;;;;;1.50;0.83;;;23.80;93.80;;;;;;4942476;28;20542;-76
2022/06/27 11:04:58;;;;;;;1.50;0.83;;;23.80;95.10;;;;;;4951348;28;20572;-75
2022/06/27 11:07:25;;;;;;;1.50;0.90;;;23.60;95.40;;;;;;4957282;28;20554;-77
2022/06/27 11:09:53;;;;;;;1.50;0.90;;;23.50;96.30;;;;;;4941776;28;20557;-76
2022/06/27 11:12:28;;;;;;;1.50;0.90;;;23.40;96.90;;;;;;4937359;28;20490;-75
2022/06/27 11:14:57;;;;;;;1.50;0.90;;;23.30;98.20;;;;;;4946692;28;20494;-77
2022/06/27 11:17:28;;;;;;;1.50;1.00;;;23.20;98.20;;;;;;4950156;28;20469;-77
2022/06/27 11:20:09;;;;;;;1.50;0.90;;;23.00;98.20;;;;;;4952155;28;20467;-77
2022/06/27 11:22:37;;;;;;;1.50;0.90;;;22.90;98.20;;;;;;4954217;28;20486;-78
2022/06/27 11:25:04;;;;;;;1.50;0.90;;;22.70;98.20;;;;;;4955001;28;20502;-78
2022/06/27 11:27:46;;;;;;;1.50;0.90;;;22.60;98.20;;;;;;4958859;28;20467;-78
2022/06/27 11:33:22;;;;;;;1.50;0.90;;;22.40;98.20;;;;;;4950072;28;20527;-80
2022/06/27 11:35:50;;;;;;;1.50;0.90;;;22.40;98.20;;;;;;4962610;28;20481;-79
2022/06/27 11:38:25;;;;;;;1.50;0.90;;;22.40;98.20;;;;;;4963153;28;20514;-78
2022/06/27 11:41:07;;;;;;;1.50;0.83;;;22.40;98.20;;;;;;4949040;28;20477;-80
2022/06/27 11:43:53;;;;;;;1.43;0.90;;;22.40;98.20;;;;;;4965364;28;20472;-81
2022/06/27 11:46:29;;;;;;;1.50;0.90;;;22.40;98.20;;;;;;4961954;28;20525;-79
2022/06/27 11:48:58;;;;;;;1.50;0.90;;;22.50;98.20;;;;;;4963990;28;20520;-80
2022/06/27 11:51:29;;;;;;;1.50;0.90;;;22.60;98.20;;;;;;4948915;28;20513;-80
2022/06/27 11:54:00;;;;;;;1.50;0.90;;;22.80;98.20;;;;;;4966686;28;20544;-79
2022/06/27 11:56:30;;;;;;;1.50;0.90;;;22.90;98.20;;;;;;4966717;28;20520;-79
2022/06/27 11:59:00;;;;;;;1.47;0.90;;;23.10;98.20;;;;;;4955960;28;20486;-77
2022/06/27 12:01:27;;;;;;;1.50;0.90;;;23.40;96.90;;;;;;4946071;28;20469;-78
2022/06/27 12:04:14;;;;;;;1.47;0.90;;;23.60;96.20;;;;;;4951591;28;20474;-78
2022/06/27 12:06:46;;;;;;;1.50;0.90;;;24.00;95.40;;;;;;4956933;28;20488;-79
2022/06/27 12:09:13;;;;;;;1.50;0.90;;;24.30;95.90;;;;;;4960387;28;21093;-79
2022/06/27 12:11:58;;;;;;;1.50;0.90;;;24.60;95.30;;;;;;4953787;28;20518;-78
2022/06/27 12:14:28;;;;;;;1.50;0.90;;;24.80;94.10;;;;;;4952032;28;21387;-79
2022/06/27 12:16:57;;;;;;;1.50;0.90;;;25.10;93.70;;;;;;4969464;28;20850;-78
2022/06/27 12:19:25;;;;;;;1.50;0.90;;;25.20;92.80;;;;;;4978195;28;20904;-79
2022/06/27 12:21:52;;;;;;;1.50;0.80;;;25.30;92.10;;;;;;4964165;28;20569;-78
2022/06/27 12:24:19;;;;;;;1.50;0.80;;;25.30;89.60;;;;;;4963235;28;20489;-78
2022/06/27 12:26:46;;;;;;;1.47;0.90;;;25.20;88.80;;;;;;4970583;28;20480;-78
2022/06/27 12:29:14;;;;;;;1.50;0.90;;;25.10;89.90;;;;;;4975707;28;20465;-79
2022/06/27 12:31:42;;;;;;;1.50;0.80;;;24.90;89.30;;;;;;4957100;28;20542;-79
2022/06/27 12:34:09;;;;;;;1.50;0.90;;;24.70;90.90;;;;;;4969094;28;20924;-78
2022/06/27 12:36:37;;;;;;;1.50;0.90;;;24.60;90.20;;;;;;4947409;28;20490;-79
2022/06/27 12:39:06;;;;;;;1.50;0.90;;;24.60;89.50;;;;;;4952713;28;20490;-78
2022/06/27 12:41:33;;;;;;;1.50;0.80;;;24.60;89.20;;;;;;4958728;28;20458;-78
2022/06/27 12:44:00;;;;;;;1.50;0.90;;;24.80;89.90;;;;;;4957273;28;20459;-78
2022/06/27 12:46:27;;;;;;;1.50;0.90;;;25.10;88.20;;;;;;4959799;28;20472;-77
2022/06/27 12:48:56;;;;;;;1.50;0.90;;;25.40;87.10;;;;;;4951745;28;20963;-78
2022/06/27 12:51:24;;;;;;;1.50;0.90;;;25.60;86.40;;;;;;4963179;28;20871;-78
2022/06/27 12:53:52;;;;;;;1.50;1.00;;;25.80;86.20;;;;;;4960436;28;20517;-79
2022/06/27 12:56:19;;;;;;;1.50;0.90;;;25.80;86.80;;;;;;4938642;28;20485;-78
2022/06/27 12:58:46;;;;;;;1.40;0.80;;;25.80;85.60;;;;;;4963725;28;20490;-77
2022/06/27 13:01:13;;;;;;;1.47;0.83;;;25.90;86.00;;;;;;4961236;28;20478;-78
2022/06/27 13:03:40;;;;;;;1.50;0.80;;;26.10;86.00;;;;;;4969983;28;20824;-78
2022/06/27 13:06:08;;;;;;;1.50;0.87;;;26.50;81.40;;;;;;4956651;28;20483;-77
2022/06/27 13:08:36;;;;;;;1.50;0.80;;;27.00;83.00;;;;;;4969784;28;20870;-77